sensor_id;sensor_type;location;lat;lon;timestamp;temperature;humidity
55213;DHT22;41083;52.932;6.674;2023-11-19T00:02:08;10.40;99.90
55213;DHT22;41083;52.932;6.674;2023-11-19T00:04:38;10.50;99.90
55213;DHT22;41083;52.932;6.674;2023-11-19T00:07:06;10.50;99.90
55213;DHT22;41083;52.932;6.674;2023-11-19T00:09:33;10.50;99.90
55213;DHT22;41083;52.932;6.674;2023-11-19T00:12:02;10.50;99.90
55213;DHT22;41083;52.932;6.674;2023-11-19T00:14:28;10.50;99.90
55213;DHT22;41083;52.932;6.674;2023-11-19T00:16:54;10.60;99.90
55213;DHT22;41083;52.932;6.674;2023-11-19T00:19:20;10.60;99.90
55213;DHT22;41083;52.932;6.674;2023-11-19T00:21:47;10.70;99.90
55213;DHT22;41083;52.932;6.674;2023-11-19T00:24:12;10.70;99.90
55213;DHT22;41083;52.932;6.674;2023-11-19T00:26:38;10.80;99.90
55213;DHT22;41083;52.932;6.674;2023-11-19T00:29:04;10.80;99.90
55213;DHT22;41083;52.932;6.674;2023-11-19T00:31:30;10.90;99.90
55213;DHT22;41083;52.932;6.674;2023-11-19T00:33:56;10.90;99.90
55213;DHT22;41083;52.932;6.674;2023-11-19T00:36:21;11.00;99.90
55213;DHT22;41083;52.932;6.674;2023-11-19T00:38:49;11.00;99.90
55213;DHT22;41083;52.932;6.674;2023-11-19T00:41:15;11.00;99.90
55213;DHT22;41083;52.932;6.674;2023-11-19T00:43:42;11.10;99.90
55213;DHT22;41083;52.932;6.674;2023-11-19T00:46:08;11.10;99.90
55213;DHT22;41083;52.932;6.674;2023-11-19T00:48:33;11.10;99.90
55213;DHT22;41083;52.932;6.674;2023-11-19T00:50:59;11.10;99.90
55213;DHT22;41083;52.932;6.674;2023-11-19T00:53:25;11.10;99.90
55213;DHT22;41083;52.932;6.674;2023-11-19T00:55:50;11.20;99.90
55213;DHT22;41083;52.932;6.674;2023-11-19T00:58:16;11.30;99.90
55213;DHT22;41083;52.932;6.674;2023-11-19T01:00:43;11.20;99.90
55213;DHT22;41083;52.932;6.674;2023-11-19T01:03:10;11.30;99.90
55213;DHT22;41083;52.932;6.674;2023-11-19T01:05:37;11.30;99.90
55213;DHT22;41083;52.932;6.674;2023-11-19T01:08:02;11.30;99.90
55213;DHT22;41083;52.932;6.674;2023-11-19T01:10:30;11.30;99.90
55213;DHT22;41083;52.932;6.674;2023-11-19T01:12:55;11.30;99.90
55213;DHT22;41083;52.932;6.674;2023-11-19T01:15:21;11.30;99.90
55213;DHT22;41083;52.932;6.674;2023-11-19T01:17:48;11.30;99.90
55213;DHT22;41083;52.932;6.674;2023-11-19T01:20:14;11.30;99.90
55213;DHT22;41083;52.932;6.674;2023-11-19T01:22:40;11.40;99.90
55213;DHT22;41083;52.932;6.674;2023-11-19T01:25:06;11.40;99.90
55213;DHT22;41083;52.932;6.674;2023-11-19T01:27:32;11.40;99.90
55213;DHT22;41083;52.932;6.674;2023-11-19T01:30:02;11.40;99.90
55213;DHT22;41083;52.932;6.674;2023-11-19T01:32:35;11.40;99.90
55213;DHT22;41083;52.932;6.674;2023-11-19T01:35:02;11.40;99.90
55213;DHT22;41083;52.932;6.674;2023-11-19T01:37:28;11.40;99.90
55213;DHT22;41083;52.932;6.674;2023-11-19T01:39:53;11.50;99.90
55213;DHT22;41083;52.932;6.674;2023-11-19T01:42:19;11.40;99.90
55213;DHT22;41083;52.932;6.674;2023-11-19T01:44:58;11.50;99.90
55213;DHT22;41083;52.932;6.674;2023-11-19T01:47:25;11.50;99.90
55213;DHT22;41083;52.932;6.674;2023-11-19T01:49:52;11.50;99.90
55213;DHT22;41083;52.932;6.674;2023-11-19T01:52:19;11.60;99.90
55213;DHT22;41083;52.932;6.674;2023-11-19T01:54:45;11.50;99.90
55213;DHT22;41083;52.932;6.674;2023-11-19T01:57:13;11.50;99.90
55213;DHT22;41083;52.932;6.674;2023-11-19T01:59:38;11.50;99.90
55213;DHT22;41083;52.932;6.674;2023-11-19T02:02:05;11.60;99.90
55213;DHT22;41083;52.932;6.674;2023-11-19T02:04:31;11.60;99.90
55213;DHT22;41083;52.932;6.674;2023-11-19T02:06:58;11.60;99.90
55213;DHT22;41083;52.932;6.674;2023-11-19T02:09:23;11.50;99.90
55213;DHT22;41083;52.932;6.674;2023-11-19T02:11:49;11.50;99.90
55213;DHT22;41083;52.932;6.674;2023-11-19T02:14:17;11.50;99.90
55213;DHT22;41083;52.932;6.674;2023-11-19T02:16:43;11.50;99.90
55213;DHT22;41083;52.932;6.674;2023-11-19T02:19:09;11.50;99.90
55213;DHT22;41083;52.932;6.674;2023-11-19T02:21:36;11.50;99.90
55213;DHT22;41083;52.932;6.674;2023-11-19T02:24:06;11.50;99.90
55213;DHT22;41083;52.932;6.674;2023-11-19T02:26:40;11.50;99.90
55213;DHT22;41083;52.932;6.674;2023-11-19T02:29:07;11.50;99.90
55213;DHT22;41083;52.932;6.674;2023-11-19T02:31:33;11.50;99.90
55213;DHT22;41083;52.932;6.674;2023-11-19T02:34:00;11.50;99.90
55213;DHT22;41083;52.932;6.674;2023-11-19T02:36:27;11.60;99.90
55213;DHT22;41083;52.932;6.674;2023-11-19T02:38:53;11.60;99.90
55213;DHT22;41083;52.932;6.674;2023-11-19T02:41:18;11.60;99.90
55213;DHT22;41083;52.932;6.674;2023-11-19T02:43:44;11.60;99.90
55213;DHT22;41083;52.932;6.674;2023-11-19T02:46:10;11.70;99.90
55213;DHT22;41083;52.932;6.674;2023-11-19T02:48:36;11.70;99.90
55213;DHT22;41083;52.932;6.674;2023-11-19T02:51:03;11.70;99.90
55213;DHT22;41083;52.932;6.674;2023-11-19T02:53:32;11.70;99.90
55213;DHT22;41083;52.932;6.674;2023-11-19T02:55:57;11.70;99.90
55213;DHT22;41083;52.932;6.674;2023-11-19T02:58:31;11.70;99.90
55213;DHT22;41083;52.932;6.674;2023-11-19T03:00:57;11.70;99.90
55213;DHT22;41083;52.932;6.674;2023-11-19T03:03:27;11.70;99.90
55213;DHT22;41083;52.932;6.674;2023-11-19T03:06:07;11.70;99.90
55213;DHT22;41083;52.932;6.674;2023-11-19T03:08:35;11.70;99.90
55213;DHT22;41083;52.932;6.674;2023-11-19T03:11:01;11.70;99.90
55213;DHT22;41083;52.932;6.674;2023-11-19T03:13:27;11.70;99.90
55213;DHT22;41083;52.932;6.674;2023-11-19T03:15:53;11.70;99.90
55213;DHT22;41083;52.932;6.674;2023-11-19T03:18:19;11.80;99.90
55213;DHT22;41083;52.932;6.674;2023-11-19T03:20:46;11.70;99.90
55213;DHT22;41083;52.932;6.674;2023-11-19T03:23:12;11.70;99.90
55213;DHT22;41083;52.932;6.674;2023-11-19T03:25:37;11.80;99.90
55213;DHT22;41083;52.932;6.674;2023-11-19T03:28:04;11.70;99.90
55213;DHT22;41083;52.932;6.674;2023-11-19T03:30:30;11.70;99.90
55213;DHT22;41083;52.932;6.674;2023-11-19T03:32:57;11.70;99.90
55213;DHT22;41083;52.932;6.674;2023-11-19T03:35:23;11.70;99.90
55213;DHT22;41083;52.932;6.674;2023-11-19T03:37:52;11.70;99.90
55213;DHT22;41083;52.932;6.674;2023-11-19T03:40:18;11.70;99.90
55213;DHT22;41083;52.932;6.674;2023-11-19T03:42:45;11.70;99.90
55213;DHT22;41083;52.932;6.674;2023-11-19T03:45:10;11.70;99.90
55213;DHT22;41083;52.932;6.674;2023-11-19T03:47:36;11.70;99.90
55213;DHT22;41083;52.932;6.674;2023-11-19T03:50:03;11.70;99.90
55213;DHT22;41083;52.932;6.674;2023-11-19T03:52:29;11.70;99.90
55213;DHT22;41083;52.932;6.674;2023-11-19T03:54:55;11.70;99.90
55213;DHT22;41083;52.932;6.674;2023-11-19T03:57:22;11.70;99.90
55213;DHT22;41083;52.932;6.674;2023-11-19T03:59:48;11.60;99.90
55213;DHT22;41083;52.932;6.674;2023-11-19T04:02:14;11.70;99.90
55213;DHT22;41083;52.932;6.674;2023-11-19T04:04:39;11.70;99.90
55213;DHT22;41083;52.932;6.674;2023-11-19T04:07:05;11.70;99.90
55213;DHT22;41083;52.932;6.674;2023-11-19T04:09:31;11.70;99.90
55213;DHT22;41083;52.932;6.674;2023-11-19T04:12:00;11.70;99.90
55213;DHT22;41083;52.932;6.674;2023-11-19T04:14:26;11.70;99.90
55213;DHT22;41083;52.932;6.674;2023-11-19T04:16:52;11.70;99.90
55213;DHT22;41083;52.932;6.674;2023-11-19T04:19:19;11.70;99.90
55213;DHT22;41083;52.932;6.674;2023-11-19T04:21:45;11.70;99.90
55213;DHT22;41083;52.932;6.674;2023-11-19T04:24:12;11.60;99.90
55213;DHT22;41083;52.932;6.674;2023-11-19T04:26:45;11.60;99.90
55213;DHT22;41083;52.932;6.674;2023-11-19T04:29:15;11.60;99.90
55213;DHT22;41083;52.932;6.674;2023-11-19T04:31:45;11.60;99.90
55213;DHT22;41083;52.932;6.674;2023-11-19T04:34:12;11.60;99.90
55213;DHT22;41083;52.932;6.674;2023-11-19T04:36:38;11.50;99.90
55213;DHT22;41083;52.932;6.674;2023-11-19T04:39:04;11.60;99.90
55213;DHT22;41083;52.932;6.674;2023-11-19T04:41:35;11.50;99.90
55213;DHT22;41083;52.932;6.674;2023-11-19T04:44:01;11.40;99.90
55213;DHT22;41083;52.932;6.674;2023-11-19T04:46:26;11.50;99.90
55213;DHT22;41083;52.932;6.674;2023-11-19T04:48:52;11.40;99.90
55213;DHT22;41083;52.932;6.674;2023-11-19T04:51:17;11.40;99.90
55213;DHT22;41083;52.932;6.674;2023-11-19T04:53:43;11.30;99.90
55213;DHT22;41083;52.932;6.674;2023-11-19T04:56:09;11.30;99.90
55213;DHT22;41083;52.932;6.674;2023-11-19T04:58:35;11.30;99.90
55213;DHT22;41083;52.932;6.674;2023-11-19T05:01:03;11.30;99.90
55213;DHT22;41083;52.932;6.674;2023-11-19T05:03:29;11.30;99.90
55213;DHT22;41083;52.932;6.674;2023-11-19T05:05:55;11.30;99.90
55213;DHT22;41083;52.932;6.674;2023-11-19T05:08:20;11.30;99.90
55213;DHT22;41083;52.932;6.674;2023-11-19T05:10:46;11.30;99.90
55213;DHT22;41083;52.932;6.674;2023-11-19T05:13:12;11.30;99.90
55213;DHT22;41083;52.932;6.674;2023-11-19T05:15:38;11.30;99.90
55213;DHT22;41083;52.932;6.674;2023-11-19T05:18:04;11.30;99.90
55213;DHT22;41083;52.932;6.674;2023-11-19T05:20:30;11.20;99.90
55213;DHT22;41083;52.932;6.674;2023-11-19T05:22:55;11.20;99.90
55213;DHT22;41083;52.932;6.674;2023-11-19T05:25:21;11.20;99.90
55213;DHT22;41083;52.932;6.674;2023-11-19T05:27:47;11.20;99.90
55213;DHT22;41083;52.932;6.674;2023-11-19T05:30:12;11.20;99.90
55213;DHT22;41083;52.932;6.674;2023-11-19T05:32:38;11.20;99.90
55213;DHT22;41083;52.932;6.674;2023-11-19T05:35:04;11.20;99.90
55213;DHT22;41083;52.932;6.674;2023-11-19T05:37:30;11.20;99.90
55213;DHT22;41083;52.932;6.674;2023-11-19T05:39:55;11.20;99.90
55213;DHT22;41083;52.932;6.674;2023-11-19T05:42:21;11.20;99.90
55213;DHT22;41083;52.932;6.674;2023-11-19T05:44:46;11.30;99.90
55213;DHT22;41083;52.932;6.674;2023-11-19T05:47:12;11.30;99.90
55213;DHT22;41083;52.932;6.674;2023-11-19T05:49:38;11.30;99.90
55213;DHT22;41083;52.932;6.674;2023-11-19T05:52:04;11.30;99.90
55213;DHT22;41083;52.932;6.674;2023-11-19T05:54:33;11.30;99.90
55213;DHT22;41083;52.932;6.674;2023-11-19T05:57:06;11.20;99.90
55213;DHT22;41083;52.932;6.674;2023-11-19T05:59:35;11.30;99.90
55213;DHT22;41083;52.932;6.674;2023-11-19T06:02:01;11.20;99.90
55213;DHT22;41083;52.932;6.674;2023-11-19T06:04:27;11.30;99.90
55213;DHT22;41083;52.932;6.674;2023-11-19T06:06:53;11.30;99.90
55213;DHT22;41083;52.932;6.674;2023-11-19T06:09:20;11.30;99.90
55213;DHT22;41083;52.932;6.674;2023-11-19T06:11:49;11.30;99.90
55213;DHT22;41083;52.932;6.674;2023-11-19T06:14:14;11.20;99.90
55213;DHT22;41083;52.932;6.674;2023-11-19T06:16:40;11.20;99.90
55213;DHT22;41083;52.932;6.674;2023-11-19T06:19:05;11.20;99.90
55213;DHT22;41083;52.932;6.674;2023-11-19T06:21:31;11.20;99.90
55213;DHT22;41083;52.932;6.674;2023-11-19T06:23:58;11.20;99.90
55213;DHT22;41083;52.932;6.674;2023-11-19T06:26:24;11.20;99.90
55213;DHT22;41083;52.932;6.674;2023-11-19T06:28:50;11.20;99.90
55213;DHT22;41083;52.932;6.674;2023-11-19T06:31:16;11.20;99.90
55213;DHT22;41083;52.932;6.674;2023-11-19T06:33:42;11.20;99.90
55213;DHT22;41083;52.932;6.674;2023-11-19T06:36:08;11.20;99.90
55213;DHT22;41083;52.932;6.674;2023-11-19T06:38:34;11.10;99.90
55213;DHT22;41083;52.932;6.674;2023-11-19T06:41:00;11.10;99.90
55213;DHT22;41083;52.932;6.674;2023-11-19T06:43:26;11.10;99.90
55213;DHT22;41083;52.932;6.674;2023-11-19T06:45:54;11.00;99.90
55213;DHT22;41083;52.932;6.674;2023-11-19T06:48:19;11.00;99.90
55213;DHT22;41083;52.932;6.674;2023-11-19T06:50:45;11.00;99.90
55213;DHT22;41083;52.932;6.674;2023-11-19T06:53:11;11.00;99.90
55213;DHT22;41083;52.932;6.674;2023-11-19T06:55:36;11.00;99.90
55213;DHT22;41083;52.932;6.674;2023-11-19T06:58:02;11.00;99.90
55213;DHT22;41083;52.932;6.674;2023-11-19T07:00:29;11.00;99.90
55213;DHT22;41083;52.932;6.674;2023-11-19T07:02:55;11.00;99.90
55213;DHT22;41083;52.932;6.674;2023-11-19T07:05:21;11.10;99.90
55213;DHT22;41083;52.932;6.674;2023-11-19T07:07:46;11.00;99.90
55213;DHT22;41083;52.932;6.674;2023-11-19T07:10:12;11.00;99.90
55213;DHT22;41083;52.932;6.674;2023-11-19T07:12:38;11.00;99.90
55213;DHT22;41083;52.932;6.674;2023-11-19T07:15:04;11.10;99.90
55213;DHT22;41083;52.932;6.674;2023-11-19T07:17:31;11.10;99.90
55213;DHT22;41083;52.932;6.674;2023-11-19T07:19:56;11.10;99.90
55213;DHT22;41083;52.932;6.674;2023-11-19T07:22:25;11.10;99.90
55213;DHT22;41083;52.932;6.674;2023-11-19T07:24:50;11.10;99.90
55213;DHT22;41083;52.932;6.674;2023-11-19T07:27:16;11.10;99.90
55213;DHT22;41083;52.932;6.674;2023-11-19T07:29:43;11.10;99.90
55213;DHT22;41083;52.932;6.674;2023-11-19T07:32:09;11.10;99.90
55213;DHT22;41083;52.932;6.674;2023-11-19T07:34:35;11.20;99.90
55213;DHT22;41083;52.932;6.674;2023-11-19T07:37:01;11.10;99.90
55213;DHT22;41083;52.932;6.674;2023-11-19T07:39:28;11.10;99.90
55213;DHT22;41083;52.932;6.674;2023-11-19T07:41:54;11.10;99.90
55213;DHT22;41083;52.932;6.674;2023-11-19T07:44:20;11.20;99.90
55213;DHT22;41083;52.932;6.674;2023-11-19T07:46:47;11.10;99.90
55213;DHT22;41083;52.932;6.674;2023-11-19T07:49:13;11.20;99.90
55213;DHT22;41083;52.932;6.674;2023-11-19T07:51:39;11.10;99.90
55213;DHT22;41083;52.932;6.674;2023-11-19T07:54:05;11.10;99.90
55213;DHT22;41083;52.932;6.674;2023-11-19T07:56:33;11.10;99.90
55213;DHT22;41083;52.932;6.674;2023-11-19T07:58:59;11.10;99.90
55213;DHT22;41083;52.932;6.674;2023-11-19T08:01:25;11.10;99.90
55213;DHT22;41083;52.932;6.674;2023-11-19T08:03:51;11.10;99.90
55213;DHT22;41083;52.932;6.674;2023-11-19T08:06:16;11.10;99.90
55213;DHT22;41083;52.932;6.674;2023-11-19T08:08:42;11.10;99.90
55213;DHT22;41083;52.932;6.674;2023-11-19T08:11:08;11.20;99.90
55213;DHT22;41083;52.932;6.674;2023-11-19T08:13:34;11.10;99.90
55213;DHT22;41083;52.932;6.674;2023-11-19T08:15:59;11.20;99.90
55213;DHT22;41083;52.932;6.674;2023-11-19T08:18:25;11.20;99.90
55213;DHT22;41083;52.932;6.674;2023-11-19T08:20:50;11.20;99.90
55213;DHT22;41083;52.932;6.674;2023-11-19T08:23:19;11.20;99.90
55213;DHT22;41083;52.932;6.674;2023-11-19T08:25:45;11.20;99.90
55213;DHT22;41083;52.932;6.674;2023-11-19T08:28:11;11.20;99.90
55213;DHT22;41083;52.932;6.674;2023-11-19T08:30:36;11.30;99.90
55213;DHT22;41083;52.932;6.674;2023-11-19T08:33:02;11.20;99.90
55213;DHT22;41083;52.932;6.674;2023-11-19T08:35:29;11.30;99.90
55213;DHT22;41083;52.932;6.674;2023-11-19T08:37:55;11.30;99.90
55213;DHT22;41083;52.932;6.674;2023-11-19T08:40:20;11.30;99.90
55213;DHT22;41083;52.932;6.674;2023-11-19T08:42:46;11.30;99.90
55213;DHT22;41083;52.932;6.674;2023-11-19T08:45:12;11.30;99.90
55213;DHT22;41083;52.932;6.674;2023-11-19T08:47:37;11.30;99.90
55213;DHT22;41083;52.932;6.674;2023-11-19T08:50:03;11.30;99.90
55213;DHT22;41083;52.932;6.674;2023-11-19T08:52:30;11.40;99.90
55213;DHT22;41083;52.932;6.674;2023-11-19T08:54:55;11.30;99.90
55213;DHT22;41083;52.932;6.674;2023-11-19T08:57:21;11.30;99.90
55213;DHT22;41083;52.932;6.674;2023-11-19T08:59:47;11.30;99.90
55213;DHT22;41083;52.932;6.674;2023-11-19T09:02:12;11.30;99.90
55213;DHT22;41083;52.932;6.674;2023-11-19T09:04:38;11.30;99.90
55213;DHT22;41083;52.932;6.674;2023-11-19T09:07:03;11.30;99.90
55213;DHT22;41083;52.932;6.674;2023-11-19T09:09:29;11.30;99.90
55213;DHT22;41083;52.932;6.674;2023-11-19T09:11:55;11.30;99.90
55213;DHT22;41083;52.932;6.674;2023-11-19T09:14:21;11.30;99.90
55213;DHT22;41083;52.932;6.674;2023-11-19T09:16:51;11.30;99.90
55213;DHT22;41083;52.932;6.674;2023-11-19T09:19:17;11.30;99.90
55213;DHT22;41083;52.932;6.674;2023-11-19T09:21:43;11.30;99.90
55213;DHT22;41083;52.932;6.674;2023-11-19T09:24:09;11.30;99.90
55213;DHT22;41083;52.932;6.674;2023-11-19T09:26:34;11.30;99.90
55213;DHT22;41083;52.932;6.674;2023-11-19T09:29:01;11.30;99.90
55213;DHT22;41083;52.932;6.674;2023-11-19T09:31:27;11.30;99.90
55213;DHT22;41083;52.932;6.674;2023-11-19T09:33:53;11.40;99.90
55213;DHT22;41083;52.932;6.674;2023-11-19T09:36:18;11.30;99.90
55213;DHT22;41083;52.932;6.674;2023-11-19T09:38:44;11.40;99.90
55213;DHT22;41083;52.932;6.674;2023-11-19T09:41:10;11.40;99.90
55213;DHT22;41083;52.932;6.674;2023-11-19T09:43:42;11.40;99.90
55213;DHT22;41083;52.932;6.674;2023-11-19T09:46:12;11.40;99.90
55213;DHT22;41083;52.932;6.674;2023-11-19T09:48:39;11.50;99.90
55213;DHT22;41083;52.932;6.674;2023-11-19T09:51:08;11.50;99.90
55213;DHT22;41083;52.932;6.674;2023-11-19T09:53:35;11.60;99.90
55213;DHT22;41083;52.932;6.674;2023-11-19T09:56:05;11.60;99.90
55213;DHT22;41083;52.932;6.674;2023-11-19T09:58:33;11.60;99.90
55213;DHT22;41083;52.932;6.674;2023-11-19T10:00:59;11.60;99.90
55213;DHT22;41083;52.932;6.674;2023-11-19T10:03:33;11.60;99.90
55213;DHT22;41083;52.932;6.674;2023-11-19T10:06:01;11.70;99.90
55213;DHT22;41083;52.932;6.674;2023-11-19T10:08:27;11.60;99.90
55213;DHT22;41083;52.932;6.674;2023-11-19T10:10:52;11.60;99.90
55213;DHT22;41083;52.932;6.674;2023-11-19T10:13:18;11.70;99.90
55213;DHT22;41083;52.932;6.674;2023-11-19T10:15:44;11.70;99.90
55213;DHT22;41083;52.932;6.674;2023-11-19T10:18:09;11.70;99.90
55213;DHT22;41083;52.932;6.674;2023-11-19T10:20:41;11.70;99.90
55213;DHT22;41083;52.932;6.674;2023-11-19T10:23:07;11.70;99.90
55213;DHT22;41083;52.932;6.674;2023-11-19T10:25:33;11.60;99.90
55213;DHT22;41083;52.932;6.674;2023-11-19T10:27:59;11.70;99.90
55213;DHT22;41083;52.932;6.674;2023-11-19T10:30:30;11.60;99.90
55213;DHT22;41083;52.932;6.674;2023-11-19T10:33:13;11.60;99.90
55213;DHT22;41083;52.932;6.674;2023-11-19T10:35:58;11.60;99.90
55213;DHT22;41083;52.932;6.674;2023-11-19T10:38:25;11.60;99.90
55213;DHT22;41083;52.932;6.674;2023-11-19T10:40:52;11.60;99.90
55213;DHT22;41083;52.932;6.674;2023-11-19T10:43:18;11.50;99.90
55213;DHT22;41083;52.932;6.674;2023-11-19T10:45:44;11.50;99.90
55213;DHT22;41083;52.932;6.674;2023-11-19T10:48:10;11.50;99.90
55213;DHT22;41083;52.932;6.674;2023-11-19T10:50:42;11.50;99.90
55213;DHT22;41083;52.932;6.674;2023-11-19T10:53:10;11.50;99.90
55213;DHT22;41083;52.932;6.674;2023-11-19T10:55:39;11.50;99.90
55213;DHT22;41083;52.932;6.674;2023-11-19T10:58:09;11.50;99.90
55213;DHT22;41083;52.932;6.674;2023-11-19T11:00:44;11.50;99.90
55213;DHT22;41083;52.932;6.674;2023-11-19T11:03:18;11.50;99.90
55213;DHT22;41083;52.932;6.674;2023-11-19T11:05:47;11.50;99.90
55213;DHT22;41083;52.932;6.674;2023-11-19T11:08:13;11.50;99.90
55213;DHT22;41083;52.932;6.674;2023-11-19T11:10:54;11.50;99.90
55213;DHT22;41083;52.932;6.674;2023-11-19T11:13:22;11.50;99.90
55213;DHT22;41083;52.932;6.674;2023-11-19T11:15:49;11.60;99.90
55213;DHT22;41083;52.932;6.674;2023-11-19T11:18:15;11.60;99.90
55213;DHT22;41083;52.932;6.674;2023-11-19T11:20:44;11.50;99.90
55213;DHT22;41083;52.932;6.674;2023-11-19T11:28:22;11.40;99.90
55213;DHT22;41083;52.932;6.674;2023-11-19T11:31:04;11.40;99.90
55213;DHT22;41083;52.932;6.674;2023-11-19T11:36:19;11.40;99.90
55213;DHT22;41083;52.932;6.674;2023-11-19T11:38:50;11.50;99.90
55213;DHT22;41083;52.932;6.674;2023-11-19T11:41:18;11.50;99.90
55213;DHT22;41083;52.932;6.674;2023-11-19T11:43:50;11.50;99.90
55213;DHT22;41083;52.932;6.674;2023-11-19T11:49:06;11.50;99.90
55213;DHT22;41083;52.932;6.674;2023-11-19T11:54:11;11.40;99.90
55213;DHT22;41083;52.932;6.674;2023-11-19T11:56:39;11.50;99.90
55213;DHT22;41083;52.932;6.674;2023-11-19T11:59:18;11.40;99.90
55213;DHT22;41083;52.932;6.674;2023-11-19T12:02:00;11.40;99.90
55213;DHT22;41083;52.932;6.674;2023-11-19T12:04:27;11.50;99.90
55213;DHT22;41083;52.932;6.674;2023-11-19T12:07:08;11.40;99.90
55213;DHT22;41083;52.932;6.674;2023-11-19T12:09:36;11.40;99.90
55213;DHT22;41083;52.932;6.674;2023-11-19T12:15:01;11.40;99.90
55213;DHT22;41083;52.932;6.674;2023-11-19T12:20:06;11.40;99.90
55213;DHT22;41083;52.932;6.674;2023-11-19T12:22:36;11.40;99.90
55213;DHT22;41083;52.932;6.674;2023-11-19T12:25:02;11.40;99.90
55213;DHT22;41083;52.932;6.674;2023-11-19T12:27:29;11.30;99.90
55213;DHT22;41083;52.932;6.674;2023-11-19T12:29:55;11.30;99.90
55213;DHT22;41083;52.932;6.674;2023-11-19T12:32:22;11.40;99.90
55213;DHT22;41083;52.932;6.674;2023-11-19T12:34:48;11.40;99.90
55213;DHT22;41083;52.932;6.674;2023-11-19T12:37:13;11.40;99.90
55213;DHT22;41083;52.932;6.674;2023-11-19T12:39:39;11.40;99.90
55213;DHT22;41083;52.932;6.674;2023-11-19T12:42:05;11.40;99.90
55213;DHT22;41083;52.932;6.674;2023-11-19T12:44:31;11.30;99.90
55213;DHT22;41083;52.932;6.674;2023-11-19T12:49:26;11.40;99.90
55213;DHT22;41083;52.932;6.674;2023-11-19T12:51:52;11.40;99.90
55213;DHT22;41083;52.932;6.674;2023-11-19T12:54:18;11.40;99.90
55213;DHT22;41083;52.932;6.674;2023-11-19T12:56:53;11.40;99.90
55213;DHT22;41083;52.932;6.674;2023-11-19T12:59:19;11.40;99.90
55213;DHT22;41083;52.932;6.674;2023-11-19T13:01:57;11.40;99.90
55213;DHT22;41083;52.932;6.674;2023-11-19T13:04:28;11.40;99.90
55213;DHT22;41083;52.932;6.674;2023-11-19T13:06:56;11.40;99.90
55213;DHT22;41083;52.932;6.674;2023-11-19T13:09:26;11.40;99.90
55213;DHT22;41083;52.932;6.674;2023-11-19T13:11:53;11.40;99.90
55213;DHT22;41083;52.932;6.674;2023-11-19T13:14:20;11.50;99.90
55213;DHT22;41083;52.932;6.674;2023-11-19T13:16:45;11.40;99.90
55213;DHT22;41083;52.932;6.674;2023-11-19T13:19:12;11.40;99.90
55213;DHT22;41083;52.932;6.674;2023-11-19T13:21:38;11.50;99.90
55213;DHT22;41083;52.932;6.674;2023-11-19T13:24:06;11.50;99.90
55213;DHT22;41083;52.932;6.674;2023-11-19T13:26:31;11.40;99.90
55213;DHT22;41083;52.932;6.674;2023-11-19T13:28:57;11.40;99.90
55213;DHT22;41083;52.932;6.674;2023-11-19T13:31:23;11.40;99.90
55213;DHT22;41083;52.932;6.674;2023-11-19T13:33:48;11.40;99.90
55213;DHT22;41083;52.932;6.674;2023-11-19T13:36:14;11.40;99.90
55213;DHT22;41083;52.932;6.674;2023-11-19T13:38:40;11.40;99.90
55213;DHT22;41083;52.932;6.674;2023-11-19T13:41:10;11.40;99.90
55213;DHT22;41083;52.932;6.674;2023-11-19T13:43:37;11.40;99.90
55213;DHT22;41083;52.932;6.674;2023-11-19T13:46:02;11.40;99.90
55213;DHT22;41083;52.932;6.674;2023-11-19T13:48:28;11.40;99.90
55213;DHT22;41083;52.932;6.674;2023-11-19T13:50:55;11.40;99.90
55213;DHT22;41083;52.932;6.674;2023-11-19T13:53:21;11.40;99.90
55213;DHT22;41083;52.932;6.674;2023-11-19T13:55:46;11.40;99.90
55213;DHT22;41083;52.932;6.674;2023-11-19T13:58:13;11.40;99.90
55213;DHT22;41083;52.932;6.674;2023-11-19T14:00:38;11.40;99.90
55213;DHT22;41083;52.932;6.674;2023-11-19T14:03:04;11.40;99.90
55213;DHT22;41083;52.932;6.674;2023-11-19T14:05:30;11.40;99.90
55213;DHT22;41083;52.932;6.674;2023-11-19T14:07:56;11.40;99.90
55213;DHT22;41083;52.932;6.674;2023-11-19T14:10:23;11.40;99.90
55213;DHT22;41083;52.932;6.674;2023-11-19T14:12:48;11.40;99.90
55213;DHT22;41083;52.932;6.674;2023-11-19T14:15:15;11.40;99.90
55213;DHT22;41083;52.932;6.674;2023-11-19T14:17:44;11.40;99.90
55213;DHT22;41083;52.932;6.674;2023-11-19T14:20:10;11.40;99.90
55213;DHT22;41083;52.932;6.674;2023-11-19T14:22:42;11.40;99.90
55213;DHT22;41083;52.932;6.674;2023-11-19T14:25:11;11.40;99.90
55213;DHT22;41083;52.932;6.674;2023-11-19T14:27:38;11.40;99.90
55213;DHT22;41083;52.932;6.674;2023-11-19T14:30:05;11.40;99.90
55213;DHT22;41083;52.932;6.674;2023-11-19T14:32:31;11.40;99.90
55213;DHT22;41083;52.932;6.674;2023-11-19T14:34:57;11.40;99.90
55213;DHT22;41083;52.932;6.674;2023-11-19T14:37:22;11.30;99.90
55213;DHT22;41083;52.932;6.674;2023-11-19T14:39:48;11.30;99.90
55213;DHT22;41083;52.932;6.674;2023-11-19T14:42:16;11.30;99.90
55213;DHT22;41083;52.932;6.674;2023-11-19T14:44:42;11.30;99.90
55213;DHT22;41083;52.932;6.674;2023-11-19T14:47:07;11.30;99.90
55213;DHT22;41083;52.932;6.674;2023-11-19T14:49:35;11.20;99.90
55213;DHT22;41083;52.932;6.674;2023-11-19T14:52:00;11.20;99.90
55213;DHT22;41083;52.932;6.674;2023-11-19T14:54:26;11.20;99.90
55213;DHT22;41083;52.932;6.674;2023-11-19T14:56:52;11.10;99.90
55213;DHT22;41083;52.932;6.674;2023-11-19T14:59:17;11.20;99.90
55213;DHT22;41083;52.932;6.674;2023-11-19T15:01:45;11.20;99.90
55213;DHT22;41083;52.932;6.674;2023-11-19T15:04:11;11.20;99.90
55213;DHT22;41083;52.932;6.674;2023-11-19T15:06:37;11.20;99.90
55213;DHT22;41083;52.932;6.674;2023-11-19T15:09:04;11.20;99.90
55213;DHT22;41083;52.932;6.674;2023-11-19T15:11:29;11.20;99.90
55213;DHT22;41083;52.932;6.674;2023-11-19T15:13:56;11.20;99.90
55213;DHT22;41083;52.932;6.674;2023-11-19T15:16:21;11.20;99.90
55213;DHT22;41083;52.932;6.674;2023-11-19T15:18:59;11.10;99.90
55213;DHT22;41083;52.932;6.674;2023-11-19T15:21:30;11.10;99.90
55213;DHT22;41083;52.932;6.674;2023-11-19T15:23:56;11.10;99.90
55213;DHT22;41083;52.932;6.674;2023-11-19T15:26:22;11.10;99.90
55213;DHT22;41083;52.932;6.674;2023-11-19T15:28:48;11.10;99.90
55213;DHT22;41083;52.932;6.674;2023-11-19T15:31:13;11.10;99.90
55213;DHT22;41083;52.932;6.674;2023-11-19T15:33:41;11.10;99.90
55213;DHT22;41083;52.932;6.674;2023-11-19T15:36:07;11.10;99.90
55213;DHT22;41083;52.932;6.674;2023-11-19T15:38:36;11.10;99.90
55213;DHT22;41083;52.932;6.674;2023-11-19T15:41:02;11.10;99.90
55213;DHT22;41083;52.932;6.674;2023-11-19T15:43:28;11.10;99.90
55213;DHT22;41083;52.932;6.674;2023-11-19T15:45:54;11.10;99.90
55213;DHT22;41083;52.932;6.674;2023-11-19T15:48:20;11.10;99.90
55213;DHT22;41083;52.932;6.674;2023-11-19T15:50:45;11.10;99.90